Time;durP1;ratioP1;P1;durP2;ratioP2;P2;SDS_P1;SDS_P2;PMS_P1;PMS_P2;Temp;Humidity;BMP_temperature;BMP_pressure;BME280_temperature;BME280_humidity;BME280_pressure;Samples;Min_cycle;Max_cycle;Signal;HPM_P1;HPM_P2
2022/08/16 00:02:32;;;;;;;8.13;4.30;;;;;;;17.43;77.42;97641.59;4909064;29;20057;-76
2022/08/16 00:04:59;;;;;;;5.05;3.92;;;;;;;17.46;77.10;97646.50;4889464;29;20050;-76
2022/08/16 00:07:27;;;;;;;4.78;3.60;;;;;;;17.47;76.93;97645.47;4885586;29;20048;-76
2022/08/16 00:09:59;;;;;;;5.30;3.63;;;;;;;17.52;76.45;97650.16;4891596;29;20048;-76
2022/08/16 00:12:28;;;;;;;4.65;3.42;;;;;;;17.49;75.97;97638.03;4885343;29;20044;-76
2022/08/16 00:14:56;;;;;;;11.13;3.90;;;;;;;17.47;75.91;97650.81;4876739;29;20067;-76
2022/08/16 00:17:26;;;;;;;4.68;3.30;;;;;;;17.49;76.11;97648.75;4879504;29;20136;-76
2022/08/16 00:19:54;;;;;;;3.97;3.58;;;;;;;17.51;76.36;97646.69;4894940;29;20154;-77
2022/08/16 00:22:23;;;;;;;5.03;3.60;;;;;;;17.53;75.81;97646.44;4885108;29;20060;-76
2022/08/16 00:24:52;;;;;;;5.22;3.78;;;;;;;17.54;75.96;97653.44;4886174;29;20056;-77
2022/08/16 00:27:20;;;;;;;3.70;3.30;;;;;;;17.53;75.78;97654.47;4924803;29;20061;-76
2022/08/16 00:29:47;;;;;;;6.88;3.67;;;;;;;17.46;75.55;97645.69;4878317;29;20060;-76
2022/08/16 00:32:38;;;;;;;7.10;4.10;;;;;;;17.33;75.99;97649.28;4877190;29;20055;-76
2022/08/16 00:35:08;;;;;;;6.03;3.95;;;;;;;17.20;76.84;97652.84;4896785;29;20052;-76
2022/08/16 00:37:42;;;;;;;8.18;4.15;;;;;;;17.04;77.06;97650.72;4884091;29;20522;-76
2022/08/16 00:40:31;;;;;;;5.45;4.28;;;;;;;16.93;77.60;97657.56;4896234;29;20146;-76
2022/08/16 00:43:07;;;;;;;4.85;4.35;;;;;;;16.81;77.88;97656.56;4890558;29;20131;-76
2022/08/16 00:46:00;;;;;;;5.05;3.70;;;;;;;16.68;78.42;97650.22;4879083;29;20057;-76
2022/08/16 00:48:48;;;;;;;6.03;3.58;;;;;;;16.61;78.71;97654.78;4884112;29;20052;-76
2022/08/16 00:51:19;;;;;;;4.97;4.03;;;;;;;16.57;78.59;97661.56;4877803;29;20057;-75
2022/08/16 00:53:47;;;;;;;;;;;;;;;16.58;78.95;97657.03;4894143;29;20039;-77
2022/08/16 00:56:17;;;;;;;6.00;3.85;;;;;;;16.60;78.89;97655.81;4896064;29;20465;-77
2022/08/16 00:59:06;;;;;;;8.05;4.22;;;;;;;16.67;79.07;97661.13;4896433;29;20052;-76
2022/08/16 01:01:32;;;;;;;6.05;4.05;;;;;;;16.77;78.77;97658.00;4873807;29;20056;-76
2022/08/16 01:04:02;;;;;;;5.45;4.28;;;;;;;16.84;78.37;97659.63;4878778;29;20136;-76
2022/08/16 01:06:34;;;;;;;7.43;4.07;;;;;;;16.90;78.26;97657.94;4879282;29;20389;-76
2022/08/16 01:09:16;;;;;;;3.60;3.30;;;;;;;17.01;77.77;97657.28;4881399;29;20052;-76
2022/08/16 01:11:44;;;;;;;5.00;4.20;;;;;;;17.06;77.78;97662.81;4888491;29;20095;-76
2022/08/16 01:14:24;;;;;;;4.30;3.83;;;;;;;17.13;77.59;97665.44;4888612;29;20055;-76
2022/08/16 01:16:58;;;;;;;5.90;4.28;;;;;;;17.17;77.12;97661.31;4908490;29;20054;-76
2022/08/16 01:19:47;;;;;;;5.00;3.63;;;;;;;17.16;77.09;97658.84;4885843;29;20051;-76
2022/08/16 01:22:37;;;;;;;4.00;3.47;;;;;;;17.04;77.04;97654.19;4875101;29;20056;-76
2022/08/16 01:25:23;;;;;;;5.55;3.95;;;;;;;16.93;77.30;97662.06;4903185;29;20059;-77
2022/08/16 01:28:01;;;;;;;6.15;3.70;;;;;;;16.85;77.89;97663.97;4893664;29;20045;-76
2022/08/16 01:30:33;;;;;;;4.72;3.85;;;;;;;16.79;78.57;97669.31;4892971;29;20049;-77
2022/08/16 01:33:15;;;;;;;5.95;3.75;;;;;;;16.75;78.40;97668.09;4902787;29;20044;-76
2022/08/16 01:36:07;;;;;;;4.68;4.15;;;;;;;16.68;78.66;97663.56;4879482;29;20049;-76
2022/08/16 01:38:43;;;;;;;5.28;4.28;;;;;;;16.65;78.87;97660.53;4890795;29;20053;-76
2022/08/16 01:41:22;;;;;;;5.07;4.30;;;;;;;16.53;79.07;97660.34;4896644;29;20060;-76
2022/08/16 01:43:52;;;;;;;5.93;4.07;;;;;;;16.45;79.13;97669.41;4910142;29;20053;-75
2022/08/16 01:46:38;;;;;;;5.63;4.68;;;;;;;16.39;80.20;97674.78;4920874;29;20092;-76
2022/08/16 01:49:32;;;;;;;4.60;4.15;;;;;;;16.32;79.93;97679.31;4910890;29;20064;-76
2022/08/16 01:52:19;;;;;;;4.97;4.47;;;;;;;16.27;80.06;97671.91;4903473;29;20048;-76
2022/08/16 01:55:17;;;;;;;5.07;4.25;;;;;;;16.22;80.19;97674.44;4882148;29;20060;-76
2022/08/16 01:57:44;;;;;;;7.68;4.15;;;;;;;16.18;80.39;97673.19;4874002;29;20056;-76
2022/08/16 02:00:24;;;;;;;6.57;4.57;;;;;;;16.14;80.93;97664.78;4894907;29;20059;-76
2022/08/16 02:02:56;;;;;;;5.05;4.50;;;;;;;16.11;80.59;97667.84;4911961;29;20141;-76
2022/08/16 02:05:23;;;;;;;7.45;4.30;;;;;;;16.12;80.97;97669.50;4888117;29;20060;-76
2022/08/16 02:07:50;;;;;;;5.20;4.65;;;;;;;16.07;81.14;97655.97;4884199;29;20144;-76
2022/08/16 02:10:18;;;;;;;5.93;4.20;;;;;;;16.02;80.93;97663.78;4903385;29;20496;-76
2022/08/16 02:12:47;;;;;;;6.05;4.20;;;;;;;15.99;81.39;97659.69;4889081;29;20055;-76
2022/08/16 02:15:22;;;;;;;7.38;4.95;;;;;;;16.01;81.60;97659.47;4892339;29;20049;-76
2022/08/16 02:17:54;;;;;;;5.47;4.82;;;;;;;16.00;81.95;97665.81;4891355;29;20052;-76
2022/08/16 02:20:21;;;;;;;5.85;4.72;;;;;;;15.98;81.53;97657.19;4892362;29;20056;-77
2022/08/16 02:22:52;;;;;;;5.57;4.57;;;;;;;15.96;81.33;97661.94;4873180;29;20075;-76
2022/08/16 02:25:21;;;;;;;6.65;5.38;;;;;;;15.99;82.01;97656.19;4906841;29;20072;-76
2022/08/16 02:27:49;;;;;;;6.88;5.25;;;;;;;16.07;81.40;97657.81;4901856;29;20049;-76
2022/08/16 02:30:21;;;;;;;5.15;4.60;;;;;;;16.09;81.55;97656.59;4887079;29;20057;-77
2022/08/16 02:33:08;;;;;;;6.18;4.90;;;;;;;16.03;81.24;97649.41;4903716;29;20072;-76
2022/08/16 02:35:35;;;;;;;7.40;4.75;;;;;;;16.01;81.29;97654.16;4892711;29;20045;-76
2022/08/16 02:38:25;;;;;;;4.38;3.97;;;;;;;15.99;81.20;97653.53;4908154;29;20040;-76
2022/08/16 02:40:52;;;;;;;5.50;4.72;;;;;;;15.96;81.32;97653.94;4906963;29;20048;-76
2022/08/16 02:43:24;;;;;;;5.85;4.32;;;;;;;15.97;81.41;97661.72;4862742;29;20049;-77
2022/08/16 02:45:55;;;;;;;5.55;4.43;;;;;;;16.08;81.50;97662.13;4904043;29;20580;-76
2022/08/16 02:48:22;;;;;;;6.38;4.60;;;;;;;16.12;81.38;97655.34;4911959;29;20080;-76
2022/08/16 02:50:58;;;;;;;6.90;4.40;;;;;;;16.14;81.23;97658.59;4902607;29;20044;-76
2022/08/16 02:53:40;;;;;;;6.13;5.10;;;;;;;16.16;81.20;97646.69;4902475;29;20998;-76
2022/08/16 02:56:11;;;;;;;7.38;4.32;;;;;;;16.19;80.65;97643.63;4904043;29;20508;-76
2022/08/16 02:58:41;;;;;;;7.65;4.68;;;;;;;16.21;80.56;97646.91;4904636;29;20064;-76
2022/08/16 03:01:12;;;;;;;7.43;4.80;;;;;;;16.22;80.63;97640.53;4859448;29;20073;-76
2022/08/16 03:03:53;;;;;;;6.47;4.45;;;;;;;16.27;80.48;97645.22;4876788;29;20791;-78
2022/08/16 03:06:40;;;;;;;6.03;4.63;;;;;;;16.38;79.90;97635.78;4901735;29;20072;-76
2022/08/16 03:09:18;;;;;;;6.93;4.38;;;;;;;16.40;79.65;97637.22;4890928;29;20068;-76
2022/08/16 03:11:49;;;;;;;6.00;4.17;;;;;;;16.38;79.51;97636.59;4894067;29;20048;-76
2022/08/16 03:14:17;;;;;;;7.43;4.10;;;;;;;16.36;79.55;97632.50;4910648;29;20533;-76
2022/08/16 03:16:52;;;;;;;5.53;4.68;;;;;;;16.44;79.63;97632.25;4892397;29;20049;-76
2022/08/16 03:19:32;;;;;;;5.68;4.03;;;;;;;16.34;79.50;97629.22;4892479;29;20049;-76
2022/08/16 03:22:21;;;;;;;6.07;4.35;;;;;;;16.23;79.27;97633.34;4904700;29;20051;-76
2022/08/16 03:24:57;;;;;;;6.00;4.43;;;;;;;16.16;79.62;97633.34;4890707;29;20053;-76
2022/08/16 03:27:26;;;;;;;4.88;4.35;;;;;;;16.12;79.98;97637.50;4903287;29;20316;-77
2022/08/16 03:30:19;;;;;;;6.07;4.35;;;;;;;16.07;80.50;97631.97;4892459;29;20049;-76
2022/08/16 03:32:52;;;;;;;5.32;4.53;;;;;;;16.03;80.61;97622.72;4881056;29;20058;-77
2022/08/16 03:35:24;;;;;;;8.20;4.47;;;;;;;15.97;80.65;97632.38;4904445;29;20576;-77
2022/08/16 03:38:02;;;;;;;5.60;4.75;;;;;;;15.97;80.83;97631.56;4894325;29;20053;-77
2022/08/16 03:40:41;;;;;;;5.05;4.55;;;;;;;15.94;80.78;97632.00;4891469;29;20045;-76
2022/08/16 03:43:10;;;;;;;5.65;4.70;;;;;;;15.90;80.65;97633.41;4898499;29;20140;-76
2022/08/16 03:45:48;;;;;;;5.63;4.38;;;;;;;15.87;80.88;97628.50;4902689;29;20048;-76
2022/08/16 03:48:24;;;;;;;5.97;4.70;;;;;;;15.83;81.27;97633.44;4911732;29;20113;-76
2022/08/16 03:51:14;;;;;;;6.82;4.50;;;;;;;15.84;81.30;97634.25;4904219;29;20544;-76
2022/08/16 03:53:53;;;;;;;7.30;5.47;;;;;;;15.82;81.78;97630.97;4892959;29;20125;-76
2022/08/16 03:56:27;;;;;;;5.65;5.05;;;;;;;15.86;81.82;97633.03;4892399;29;20048;-76
2022/08/16 03:58:57;;;;;;;8.10;5.45;;;;;;;16.01;81.38;97632.81;4893778;29;20497;-76
2022/08/16 04:01:28;;;;;;;7.22;5.35;;;;;;;16.02;81.37;97629.91;4906776;29;20049;-76
2022/08/16 04:03:56;;;;;;;6.72;4.95;;;;;;;15.94;80.74;97632.81;4896080;29;20049;-76
2022/08/16 04:06:23;;;;;;;6.65;5.47;;;;;;;15.83;81.40;97629.97;4893404;29;20527;-76
2022/08/16 04:08:50;;;;;;;6.55;5.22;;;;;;;15.80;81.57;97633.88;4891762;29;20061;-77
2022/08/16 04:11:17;;;;;;;10.07;5.47;;;;;;;15.89;81.33;97634.47;4890829;29;20045;-76
2022/08/16 04:13:46;;;;;;;7.75;5.13;;;;;;;15.87;81.52;97640.00;4895956;29;20108;-76
2022/08/16 04:16:37;;;;;;;5.47;4.97;;;;;;;15.72;81.60;97632.22;4908909;29;20043;-77
2022/08/16 04:19:26;;;;;;;8.02;4.70;;;;;;;15.67;81.75;97633.84;4891850;29;20645;-76
2022/08/16 04:21:58;;;;;;;5.88;5.25;;;;;;;15.58;81.80;97631.34;4906822;29;20055;-76
2022/08/16 04:24:29;;;;;;;6.97;5.00;;;;;;;15.65;82.58;97634.03;4879253;29;20045;-76
2022/08/16 04:26:56;;;;;;;5.57;4.85;;;;;;;15.61;82.42;97640.78;4877596;29;20492;-76
2022/08/16 04:29:24;;;;;;;5.82;4.72;;;;;;;15.59;82.51;97649.03;4879287;29;20045;-76
2022/08/16 04:31:53;;;;;;;6.50;5.40;;;;;;;15.68;81.94;97643.47;4899839;29;20055;-76
2022/08/16 04:34:29;;;;;;;;;;;;;;;15.72;82.22;97640.22;4906087;29;20044;-76
2022/08/16 04:36:57;;;;;;;7.78;5.30;;;;;;;15.85;81.87;97647.41;4879081;29;19924;-76
2022/08/16 04:39:31;;;;;;;6.85;5.32;;;;;;;16.06;81.37;97654.34;4877610;29;20100;-76
2022/08/16 04:42:16;;;;;;;7.72;4.85;;;;;;;16.18;80.59;97652.66;4908328;29;20436;-76
2022/08/16 04:44:45;;;;;;;8.15;5.55;;;;;;;16.23;80.23;97644.03;4871168;29;20053;-76
2022/08/16 04:47:27;;;;;;;5.38;4.78;;;;;;;16.34;79.86;97650.56;4907450;29;20093;-76
2022/08/16 04:50:03;;;;;;;14.55;5.95;;;;;;;16.47;79.03;97658.53;4892689;29;20443;-76
2022/08/16 04:52:31;;;;;;;6.38;5.55;;;;;;;16.49;78.99;97659.16;4870566;29;20456;-76
2022/08/16 04:55:07;;;;;;;7.47;5.03;;;;;;;16.56;78.75;97659.94;4895229;29;20064;-76
2022/08/16 04:57:36;;;;;;;5.70;4.78;;;;;;;16.62;78.67;97669.78;4894865;29;20045;-76
2022/08/16 05:00:07;;;;;;;9.52;4.68;;;;;;;16.65;78.31;97666.69;4892519;29;20056;-76
2022/08/16 05:02:54;;;;;;;5.55;4.88;;;;;;;16.60;78.47;97663.81;4879664;29;20136;-76
2022/08/16 05:05:24;;;;;;;5.70;5.10;;;;;;;16.62;78.17;97666.28;4889387;29;20047;-76
2022/08/16 05:07:59;;;;;;;5.88;5.10;;;;;;;16.61;78.46;97665.47;4894174;29;20140;-76
2022/08/16 05:10:53;;;;;;;5.57;4.85;;;;;;;16.81;77.75;97669.94;4908214;29;20041;-76
2022/08/16 05:13:26;;;;;;;7.55;4.63;;;;;;;16.95;77.51;97676.03;4891235;29;20138;-76
2022/08/16 05:16:15;;;;;;;5.57;4.93;;;;;;;17.08;77.05;97671.41;4891563;29;20436;-76
2022/08/16 05:18:53;;;;;;;7.13;4.60;;;;;;;17.20;76.78;97674.25;4877299;29;20052;-76
2022/08/16 05:21:23;;;;;;;11.02;5.57;;;;;;;17.29;76.15;97674.78;4873193;29;20044;-76
2022/08/16 05:23:54;;;;;;;6.53;4.75;;;;;;;17.37;76.14;97677.22;4903036;29;20049;-76
2022/08/16 05:26:30;;;;;;;10.23;5.05;;;;;;;17.47;75.81;97674.06;4874414;29;20040;-77
2022/08/16 05:28:59;;;;;;;6.32;5.47;;;;;;;17.51;74.87;97678.75;4895477;29;20049;-76
2022/08/16 05:31:30;;;;;;;5.82;5.22;;;;;;;17.62;74.64;97674.56;4890490;29;20789;-76
2022/08/16 05:34:00;;;;;;;13.23;5.40;;;;;;;17.69;74.54;97678.00;4908782;29;20049;-76
2022/08/16 05:36:31;;;;;;;6.00;5.05;;;;;;;17.69;74.27;97674.50;4906303;29;20064;-76
2022/08/16 05:39:07;;;;;;;7.95;5.47;;;;;;;17.75;74.10;97681.69;4879694;29;20055;-76
2022/08/16 05:41:35;;;;;;;6.28;5.68;;;;;;;17.79;73.99;97682.88;4874998;29;20079;-76
2022/08/16 05:44:15;;;;;;;8.02;5.13;;;;;;;17.77;73.39;97685.78;4893096;29;20045;-76
2022/08/16 05:46:53;;;;;;;6.18;5.07;;;;;;;17.83;73.84;97688.63;4888335;29;20398;-76
2022/08/16 05:49:20;;;;;;;6.65;5.07;;;;;;;17.90;73.33;97682.16;4893183;29;20060;-77
2022/08/16 05:51:48;;;;;;;6.38;5.05;;;;;;;17.98;73.32;97676.56;4888079;29;20069;-76
2022/08/16 05:54:17;;;;;;;6.18;4.75;;;;;;;18.05;72.73;97681.03;4908105;29;20540;-76
2022/08/16 05:56:54;;;;;;;12.20;5.75;;;;;;;18.10;72.72;97682.00;4906748;29;20100;-75
2022/08/16 05:59:22;;;;;;;9.95;5.50;;;;;;;18.25;72.53;97684.34;4892075;29;20134;-76
2022/08/16 06:01:50;;;;;;;9.30;5.03;;;;;;;18.31;72.13;97688.78;4885235;29;20896;-76
2022/08/16 06:04:22;;;;;;;8.25;5.75;;;;;;;18.39;72.23;97687.69;4898274;29;20052;-76
2022/08/16 06:07:05;;;;;;;9.60;6.10;;;;;;;18.46;70.79;97688.44;4865224;29;20492;-76
2022/08/16 06:09:38;;;;;;;7.28;4.95;;;;;;;18.53;71.03;97691.03;4896850;29;20104;-76
2022/08/16 06:12:14;;;;;;;8.80;4.75;;;;;;;18.65;71.17;97686.56;4888954;29;20075;-76
2022/08/16 06:14:57;;;;;;;7.13;4.55;;;;;;;18.70;70.87;97697.44;4877587;29;20143;-76
2022/08/16 06:17:27;;;;;;;6.45;4.40;;;;;;;18.77;70.02;97695.53;4902195;29;20056;-76
2022/08/16 06:20:19;;;;;;;7.97;4.88;;;;;;;18.86;70.05;97696.84;4902310;29;20060;-76
2022/08/16 06:22:55;;;;;;;7.88;4.38;;;;;;;18.93;69.85;97701.28;4874137;29;20081;-77
2022/08/16 06:25:34;;;;;;;5.30;4.40;;;;;;;19.09;69.10;97698.00;4872323;29;20142;-76
2022/08/16 06:28:07;;;;;;;8.40;5.07;;;;;;;19.22;68.40;97692.47;4892123;29;20060;-76
2022/08/16 06:30:38;;;;;;;6.63;4.55;;;;;;;19.30;68.39;97692.13;4904146;29;20064;-76
2022/08/16 06:33:16;;;;;;;5.15;4.35;;;;;;;19.46;68.00;97692.53;4901644;29;20051;-76
2022/08/16 06:35:49;;;;;;;10.30;4.65;;;;;;;19.52;67.04;97694.28;4887299;29;20044;-76
2022/08/16 06:38:21;;;;;;;11.23;4.68;;;;;;;19.62;66.65;97697.22;4894667;29;20531;-76
2022/08/16 06:41:04;;;;;;;7.35;4.97;;;;;;;19.73;66.83;97696.47;4884089;29;20049;-76
2022/08/16 06:43:32;;;;;;;6.18;4.53;;;;;;;19.87;66.41;97698.94;4890879;29;20052;-76
2022/08/16 06:46:07;;;;;;;8.02;4.47;;;;;;;19.93;65.91;97703.34;4907848;29;20139;-76
2022/08/16 06:48:36;;;;;;;7.95;4.05;;;;;;;19.99;65.89;97699.78;4900882;29;20274;-76
2022/08/16 06:51:08;;;;;;;4.65;3.85;;;;;;;20.01;65.97;97697.69;4900512;29;20057;-76
2022/08/16 06:53:39;;;;;;;9.32;4.53;;;;;;;19.82;66.01;97698.81;4879157;29;20073;-76
2022/08/16 06:56:07;;;;;;;6.60;4.75;;;;;;;19.67;66.76;97700.06;4896155;29;20097;-76
2022/08/16 06:59:14;;;;;;;7.45;4.40;;;;;;;19.41;67.48;97697.78;4886516;29;20148;-75
2022/08/16 07:01:47;;;;;;;7.82;4.60;;;;;;;19.23;67.82;97696.78;4894307;29;20464;-75
2022/08/16 07:04:21;;;;;;;6.25;4.10;;;;;;;19.18;68.16;97704.69;4883925;29;20131;-76
2022/08/16 07:06:59;;;;;;;7.07;4.07;;;;;;;19.16;68.08;97714.81;4894312;29;20049;-76
2022/08/16 07:09:26;;;;;;;6.45;4.55;;;;;;;19.22;67.34;97715.75;4888194;29;20044;-76
2022/08/16 07:11:56;;;;;;;6.28;4.90;;;;;;;19.38;67.72;97715.13;4899693;29;20749;-75
2022/08/16 07:14:33;;;;;;;5.53;4.13;;;;;;;19.58;66.92;97714.00;4880027;29;20064;-75
2022/08/16 07:17:03;;;;;;;6.55;5.07;;;;;;;19.72;66.30;97719.00;4879022;29;20061;-75
2022/08/16 07:19:41;;;;;;;6.68;4.47;;;;;;;19.90;65.85;97711.88;4908491;29;20052;-76
2022/08/16 07:22:35;;;;;;;6.18;4.38;;;;;;;20.03;65.28;97716.22;4892864;29;20036;-75
2022/08/16 07:25:22;;;;;;;7.60;4.25;;;;;;;20.15;65.09;97709.81;4892651;29;20040;-75
2022/08/16 07:27:49;;;;;;;7.15;4.07;;;;;;;20.35;64.87;97712.16;4883639;29;20097;-75
2022/08/16 07:30:20;;;;;;;5.65;3.97;;;;;;;20.40;64.22;97708.75;4897892;29;20563;-75
2022/08/16 07:33:09;;;;;;;6.30;4.82;;;;;;;20.55;64.09;97706.41;4883334;29;20564;-75
2022/08/16 07:35:41;;;;;;;5.25;4.57;;;;;;;20.61;63.73;97707.34;4892518;29;20424;-75
2022/08/16 07:38:15;;;;;;;5.15;3.90;;;;;;;20.54;64.09;97706.66;4892462;29;20044;-74
2022/08/16 07:40:51;;;;;;;8.65;4.88;;;;;;;20.42;64.36;97703.94;4902012;29;20037;-75
2022/08/16 07:43:29;;;;;;;8.05;4.60;;;;;;;20.54;64.04;97699.41;4895418;29;20103;-75
2022/08/16 07:45:59;;;;;;;8.73;4.20;;;;;;;20.72;64.41;97694.94;4907299;29;20053;-75
2022/08/16 07:48:29;;;;;;;6.72;4.40;;;;;;;20.90;63.81;97693.94;4893156;29;20431;-75
2022/08/16 07:50:56;;;;;;;7.03;5.00;;;;;;;21.09;62.76;97697.28;4885294;29;20049;-75
2022/08/16 07:53:28;;;;;;;8.10;4.10;;;;;;;21.22;61.76;97702.34;4884475;29;20053;-75
2022/08/16 07:55:57;;;;;;;6.57;4.22;;;;;;;21.27;62.27;97705.16;4877991;29;20052;-74
2022/08/16 07:58:28;;;;;;;7.30;4.25;;;;;;;21.37;61.05;97710.72;4894565;29;20341;-74
2022/08/16 08:01:04;;;;;;;7.00;4.43;;;;;;;21.39;61.66;97705.94;4893296;29;20056;-74
2022/08/16 08:03:51;;;;;;;5.07;4.07;;;;;;;21.57;61.25;97701.41;4899592;29;20056;-74
2022/08/16 08:06:27;;;;;;;5.70;4.60;;;;;;;21.76;60.54;97710.88;4903706;29;20496;-75
2022/08/16 08:08:58;;;;;;;9.93;4.53;;;;;;;21.92;59.49;97712.75;4890301;29;20052;-75
2022/08/16 08:11:28;;;;;;;12.82;5.05;;;;;;;21.70;60.30;97706.50;4896676;29;20044;-74
2022/08/16 08:14:01;;;;;;;11.00;4.68;;;;;;;21.74;61.06;97704.94;4881538;29;20135;-75
2022/08/16 08:16:31;;;;;;;6.20;4.40;;;;;;;22.06;59.68;97707.06;4868160;29;20061;-74
2022/08/16 08:18:59;;;;;;;6.70;4.20;;;;;;;22.24;58.43;97701.44;4891686;29;20508;-74
2022/08/16 08:21:31;;;;;;;8.30;4.75;;;;;;;22.35;58.58;97708.63;4908067;29;20148;-74
2022/08/16 08:24:19;;;;;;;7.18;4.65;;;;;;;22.42;57.63;97718.41;4867570;29;20049;-74
2022/08/16 08:26:46;;;;;;;6.35;4.78;;;;;;;22.22;56.89;97716.22;4884979;29;20060;-74
2022/08/16 08:29:17;;;;;;;7.10;4.88;;;;;;;22.33;54.97;97720.69;4887357;29;20044;-73
2022/08/16 08:31:51;;;;;;;6.18;4.43;;;;;;;22.39;55.51;97725.09;4906129;29;20081;-74
2022/08/16 08:34:20;;;;;;;10.27;4.85;;;;;;;22.50;55.30;97723.34;4896835;29;20059;-75
2022/08/16 08:36:49;;;;;;;8.63;4.68;;;;;;;22.70;56.09;97717.44;4876454;29;20100;-74
2022/08/16 08:39:33;;;;;;;9.57;4.88;;;;;;;22.72;54.65;97724.22;4890193;29;20080;-74
2022/08/16 08:42:19;;;;;;;5.38;4.40;;;;;;;22.81;56.46;97724.59;4894336;29;20059;-73
2022/08/16 08:44:52;;;;;;;6.55;4.75;;;;;;;22.96;55.43;97726.63;4909285;29;20412;-74
2022/08/16 08:47:20;;;;;;;6.75;4.68;;;;;;;23.47;54.78;97731.84;4891877;29;20052;-74
2022/08/16 08:49:48;;;;;;;6.40;4.32;;;;;;;23.74;54.19;97724.56;4853055;29;20724;-74
2022/08/16 08:52:23;;;;;;;6.40;4.28;;;;;;;23.81;52.96;97727.06;4890962;29;20457;-75
2022/08/16 08:55:16;;;;;;;8.98;4.97;;;;;;;23.50;54.31;97732.13;4872459;29;20053;-73
2022/08/16 08:57:45;;;;;;;7.70;4.88;;;;;;;23.44;52.42;97738.56;4901789;29;20071;-73
2022/08/16 09:00:22;;;;;;;6.45;4.72;;;;;;;23.34;52.34;97733.06;4890154;29;20112;-74
2022/08/16 09:02:55;;;;;;;5.60;4.55;;;;;;;23.44;51.77;97735.84;4889255;29;20109;-74
2022/08/16 09:05:25;;;;;;;5.80;4.78;;;;;;;23.57;51.71;97743.53;4874526;29;20099;-74
2022/08/16 09:08:03;;;;;;;4.95;3.95;;;;;;;23.62;52.40;97738.19;4856242;29;20056;-74
2022/08/16 09:10:44;;;;;;;7.75;5.13;;;;;;;23.69;51.91;97731.75;4873675;29;20057;-74
2022/08/16 09:13:11;;;;;;;6.35;4.68;;;;;;;23.60;52.26;97729.53;4875314;29;20044;-74
2022/08/16 09:15:43;;;;;;;5.63;4.38;;;;;;;23.69;51.10;97732.56;4861889;29;20053;-74
2022/08/16 09:18:13;;;;;;;6.47;4.72;;;;;;;23.52;53.68;97734.59;4872942;29;20105;-73
2022/08/16 09:21:00;;;;;;;11.90;5.60;;;;;;;23.60;52.94;97739.53;4873877;29;20164;-74
2022/08/16 09:23:30;;;;;;;5.15;4.50;;;;;;;23.32;53.87;97741.38;4872261;29;20120;-74
2022/08/16 09:26:05;;;;;;;7.25;5.10;;;;;;;23.27;52.31;97751.31;4872381;29;20072;-74
2022/08/16 09:28:52;;;;;;;6.10;4.43;;;;;;;23.25;52.88;97739.94;4860104;29;20104;-74
2022/08/16 09:31:39;;;;;;;6.05;4.88;;;;;;;23.40;52.80;97737.41;4876876;29;20156;-74
2022/08/16 09:34:08;;;;;;;6.53;4.70;;;;;;;23.78;52.83;97736.47;4874519;29;20045;-73
2022/08/16 09:36:36;;;;;;;8.10;4.68;;;;;;;24.24;51.17;97738.72;4873176;29;20045;-74
2022/08/16 09:39:11;;;;;;;8.52;4.97;;;;;;;25.14;47.00;97733.28;4874609;29;20509;-74
2022/08/16 09:41:42;;;;;;;7.95;4.90;;;;;;;25.20;47.02;97737.69;4872666;29;20041;-73
2022/08/16 09:44:20;;;;;;;7.32;4.57;;;;;;;25.54;45.85;97731.78;4876316;29;20411;-74
2022/08/16 09:47:08;;;;;;;8.35;4.60;;;;;;;25.30;47.86;97734.97;4871537;29;20109;-74
2022/08/16 09:49:36;;;;;;;8.32;4.50;;;;;;;24.78;48.96;97735.84;4876858;29;20131;-74
2022/08/16 09:52:07;;;;;;;11.00;5.30;;;;;;;25.02;47.93;97735.41;4879472;29;20045;-74
2022/08/16 09:54:36;;;;;;;9.10;4.25;;;;;;;24.70;48.78;97729.06;4904800;29;20056;-73
2022/08/16 09:57:03;;;;;;;7.57;4.68;;;;;;;24.27;50.75;97733.59;4874860;29;20109;-73
2022/08/16 09:59:30;;;;;;;5.53;4.22;;;;;;;24.19;49.64;97725.19;4875737;29;20072;-73
2022/08/16 10:02:07;;;;;;;7.47;4.25;;;;;;;24.25;49.89;97718.72;4874488;29;20053;-73
2022/08/16 10:04:57;;;;;;;5.25;4.00;;;;;;;24.23;49.27;97718.19;4875791;29;20116;-72
2022/08/16 10:07:25;;;;;;;4.90;4.07;;;;;;;24.04;51.11;97718.59;4896000;29;20049;-73
2022/08/16 10:10:10;;;;;;;7.22;4.68;;;;;;;23.85;52.42;97723.56;4874284;29;20055;-72
2022/08/16 10:15:22;;;;;;;7.07;4.88;;;;;;;23.25;53.04;97721.06;4872758;29;20048;-73
2022/08/16 10:17:52;;;;;;;6.03;4.63;;;;;;;23.48;51.69;97722.66;4875778;29;20131;-72
2022/08/16 10:20:33;;;;;;;6.47;4.30;;;;;;;23.67;51.69;97724.75;4874845;29;20060;-73
2022/08/16 10:23:05;;;;;;;5.95;4.95;;;;;;;23.85;49.50;97728.16;4877168;29;20045;-73
2022/08/16 10:25:36;;;;;;;10.63;4.68;;;;;;;24.16;48.46;97720.28;4872830;29;20053;-72
2022/08/16 10:28:27;;;;;;;7.22;4.85;;;;;;;24.60;49.48;97729.00;4876452;29;20108;-73
2022/08/16 10:30:59;;;;;;;7.72;4.43;;;;;;;24.92;48.38;97728.06;4873906;29;20049;-72
2022/08/16 10:33:27;;;;;;;7.78;4.70;;;;;;;25.01;48.33;97728.34;4875743;29;20044;-73
2022/08/16 10:35:56;;;;;;;6.72;4.43;;;;;;;25.27;47.31;97723.88;4874174;29;20489;-73
2022/08/16 10:38:29;;;;;;;5.05;4.50;;;;;;;25.39;47.91;97733.38;4873682;29;21607;-73
2022/08/16 10:41:03;;;;;;;6.70;4.80;;;;;;;25.17;48.31;97732.78;4874360;29;20053;-73
2022/08/16 10:43:30;;;;;;;6.68;4.47;;;;;;;25.19;46.25;97730.63;4905973;29;20066;-74
2022/08/16 10:45:58;;;;;;;5.47;4.45;;;;;;;25.11;47.86;97739.22;4876153;29;20760;-73
2022/08/16 10:48:27;;;;;;;6.90;4.85;;;;;;;25.21;46.00;97738.50;4873918;29;20093;-73
2022/08/16 10:50:58;;;;;;;5.93;4.75;;;;;;;24.74;47.51;97734.75;4873658;29;20041;-73
2022/08/16 10:53:29;;;;;;;6.10;4.38;;;;;;;24.46;49.71;97734.06;4874311;29;20060;-73
2022/08/16 10:56:01;;;;;;;8.57;4.47;;;;;;;24.84;49.62;97734.78;4873517;29;20057;-72
2022/08/16 10:58:29;;;;;;;4.68;4.20;;;;;;;25.17;47.42;97735.47;4873488;29;20059;-72
2022/08/16 11:01:04;;;;;;;5.65;4.63;;;;;;;25.30;48.90;97732.25;4874934;29;20390;-73
2022/08/16 11:03:52;;;;;;;7.43;4.28;;;;;;;25.44;46.43;97726.38;4872336;29;20066;-72
2022/08/16 11:06:20;;;;;;;6.32;3.92;;;;;;;25.33;46.33;97736.34;4872815;29;20108;-73
2022/08/16 11:08:55;;;;;;;13.98;9.48;;;;;;;25.21;47.22;97744.72;4872551;29;20041;-73
2022/08/16 11:11:41;;;;;;;8.02;4.80;;;;;;;25.27;47.99;97742.81;4873744;29;20528;-73
2022/08/16 11:14:28;;;;;;;5.32;4.13;;;;;;;25.32;48.24;97746.34;4876524;29;20405;-72
2022/08/16 11:16:55;;;;;;;9.73;4.47;;;;;;;25.16;47.17;97736.56;4874406;29;20063;-73
2022/08/16 11:19:37;;;;;;;5.20;4.18;;;;;;;25.46;47.02;97730.44;4872068;29;20053;-73
2022/08/16 11:22:25;;;;;;;5.45;4.50;;;;;;;26.14;45.17;97732.94;4873329;29;20045;-73
2022/08/16 11:25:14;;;;;;;11.38;4.50;;;;;;;26.31;44.50;97727.22;4873934;29;20050;-73
2022/08/16 11:28:02;;;;;;;5.47;3.78;;;;;;;26.17;44.70;97734.28;4875277;29;20045;-73
2022/08/16 11:30:29;;;;;;;5.20;3.95;;;;;;;26.36;42.74;97731.84;4869273;29;20061;-73
2022/08/16 11:33:04;;;;;;;8.05;4.15;;;;;;;26.75;44.01;97732.03;4879692;29;20055;-73
2022/08/16 11:35:32;;;;;;;9.43;4.32;;;;;;;26.93;42.27;97731.41;4881667;29;20068;-74
2022/08/16 11:38:21;;;;;;;5.22;4.40;;;;;;;26.77;42.67;97720.91;4874211;29;20109;-73
2022/08/16 11:41:08;;;;;;;5.38;3.58;;;;;;;27.36;41.18;97728.28;4873825;29;20064;-73
2022/08/16 11:43:37;;;;;;;7.82;4.10;;;;;;;26.96;40.51;97723.81;4874302;29;20077;-73
2022/08/16 11:46:10;;;;;;;6.00;3.50;;;;;;;27.18;41.06;97726.22;4876709;29;20059;-73
2022/08/16 11:48:57;;;;;;;9.45;5.15;;;;;;;27.31;42.09;97720.16;4874386;29;20064;-73
2022/08/16 11:51:23;;;;;;;5.20;3.88;;;;;;;27.12;42.30;97715.34;4880597;29;20049;-73
2022/08/16 11:53:50;;;;;;;8.02;4.35;;;;;;;26.55;43.32;97711.22;4877617;29;20408;-73
2022/08/16 11:56:18;;;;;;;8.18;4.13;;;;;;;26.79;41.19;97705.16;4873856;29;20052;-72
2022/08/16 11:59:04;;;;;;;5.68;3.70;;;;;;;26.97;42.58;97718.13;4877211;29;20108;-79
2022/08/16 12:01:32;;;;;;;7.50;4.38;;;;;;;27.18;44.14;97707.19;4881267;29;20053;-68
2022/08/16 12:04:20;;;;;;;8.50;3.70;;;;;;;27.10;43.59;97714.81;4874083;29;20052;-68
2022/08/16 12:06:48;;;;;;;6.50;3.50;;;;;;;27.11;43.17;97705.56;4876479;29;20045;-68
2022/08/16 12:09:19;;;;;;;9.75;3.85;;;;;;;27.12;42.86;97706.34;4878149;29;20113;-68
2022/08/16 12:11:45;;;;;;;7.30;3.70;;;;;;;27.23;41.70;97712.59;4874590;29;20412;-68
2022/08/16 12:14:18;;;;;;;5.63;3.97;;;;;;;27.14;41.25;97702.28;4878473;29;20097;-67